createdAt,value
2023-03-18T00:00:34.158Z,101119.06
2023-03-18T00:03:01.577Z,101122.25
2023-03-18T00:05:28.838Z,101125.41
2023-03-18T00:07:56.107Z,101117.25
2023-03-18T00:10:23.241Z,101109.69
2023-03-18T00:12:50.224Z,101123.34
2023-03-18T00:15:18.451Z,101113.13
2023-03-18T00:17:46.833Z,101107.25
2023-03-18T00:20:14.819Z,101107.59
2023-03-18T00:22:42.201Z,101114.06
2023-03-18T00:25:12.114Z,101105.56
2023-03-18T00:27:40.063Z,101107.00
2023-03-18T00:30:08.401Z,101102.84
2023-03-18T00:32:35.416Z,101095.19
2023-03-18T00:35:02.497Z,101092.38
2023-03-18T00:37:31.486Z,101090.78
2023-03-18T00:40:06.692Z,101092.97
2023-03-18T00:42:40.073Z,101101.59
2023-03-18T00:45:10.500Z,101104.56
2023-03-18T00:47:38.694Z,101112.09
2023-03-18T00:50:08.530Z,101103.97
2023-03-18T00:52:35.977Z,101097.00
2023-03-18T00:55:03.550Z,101095.38
2023-03-18T00:57:31.323Z,101090.78
2023-03-18T00:59:59.483Z,101091.38
2023-03-18T01:02:29.838Z,101089.31
2023-03-18T01:04:57.281Z,101081.59
2023-03-18T01:07:25.386Z,101084.78
2023-03-18T01:09:52.240Z,101085.13
2023-03-18T01:12:19.583Z,101091.34
2023-03-18T01:14:47.117Z,101089.16
2023-03-18T01:17:14.654Z,101083.50
2023-03-18T01:19:42.581Z,101074.59
2023-03-18T01:22:09.693Z,101081.81
2023-03-18T01:24:43.534Z,101081.81
2023-03-18T01:27:11.291Z,101088.59
2023-03-18T01:29:40.673Z,101084.69
2023-03-18T01:32:14.083Z,101073.94
2023-03-18T01:34:41.733Z,101061.28
2023-03-18T01:37:08.861Z,101065.41
2023-03-18T01:39:38.829Z,101064.44
2023-03-18T01:42:12.284Z,101068.09
2023-03-18T01:44:39.387Z,101067.00
2023-03-18T01:47:10.566Z,101062.41
2023-03-18T01:49:46.290Z,101047.84
2023-03-18T01:52:18.329Z,101047.00
2023-03-18T01:55:25.863Z,101043.22
2023-03-18T01:57:54.221Z,101044.19
2023-03-18T02:00:21.940Z,101049.44
2023-03-18T02:02:51.800Z,101036.16
2023-03-18T02:05:28.716Z,101027.13
2023-03-18T02:07:55.835Z,101020.06
2023-03-18T02:10:29.471Z,101016.41
2023-03-18T02:13:01.013Z,101003.09
2023-03-18T02:15:35.118Z,101002.25
2023-03-18T02:18:19.554Z,101008.72
2023-03-18T02:21:08.401Z,101007.88
2023-03-18T02:24:24.570Z,101002.75
2023-03-18T02:27:06.409Z,101001.44
2023-03-18T02:29:42.458Z,100988.28
2023-03-18T02:32:15.495Z,100992.50
2023-03-18T02:34:44.324Z,100989.31
2023-03-18T02:37:11.459Z,100992.09
2023-03-18T02:39:41.083Z,101000.16
2023-03-18T02:42:13.976Z,101004.53
2023-03-18T02:44:47.792Z,101001.97
2023-03-18T02:47:51.935Z,101009.44
2023-03-18T02:50:18.993Z,101006.03
2023-03-18T02:52:45.851Z,101006.28
2023-03-18T02:55:12.975Z,100997.28
2023-03-18T02:57:39.924Z,101002.47
2023-03-18T03:00:09.430Z,101008.69
2023-03-18T03:02:37.122Z,101006.75
2023-03-18T03:05:04.487Z,100997.84
2023-03-18T03:07:32.084Z,101005.91
2023-03-18T03:10:02.003Z,101000.81
2023-03-18T03:12:30.923Z,100994.81
2023-03-18T03:14:59.820Z,100993.16
2023-03-18T03:17:29.400Z,100980.44
2023-03-18T03:19:56.598Z,100982.41
2023-03-18T03:22:23.773Z,100988.50
2023-03-18T03:24:50.740Z,100987.50
2023-03-18T03:27:17.873Z,100987.50
2023-03-18T03:29:44.919Z,100995.28
2023-03-18T03:32:12.271Z,100997.28
2023-03-18T03:34:39.209Z,100997.66
2023-03-18T03:37:07.203Z,101000.94
2023-03-18T03:39:34.184Z,101005.81
2023-03-18T03:42:01.085Z,101005.56
2023-03-18T03:44:28.064Z,101006.28
2023-03-18T03:46:55.474Z,101012.63
2023-03-18T03:49:23.948Z,101008.22
2023-03-18T03:51:51.233Z,101003.03
2023-03-18T03:54:20.080Z,101010.22
2023-03-18T03:56:48.070Z,101000.44
2023-03-18T03:59:15.440Z,101006.09
2023-03-18T04:02:04.133Z,100993.66
2023-03-18T04:04:31.191Z,100990.22
2023-03-18T04:06:58.642Z,100983.44
2023-03-18T04:09:25.705Z,100986.38
2023-03-18T04:11:52.675Z,100980.28
2023-03-18T04:14:19.685Z,100983.94
2023-03-18T04:16:47.144Z,100985.91
2023-03-18T04:19:14.739Z,100990.41
2023-03-18T04:21:42.713Z,100995.66
2023-03-18T04:24:10.984Z,100989.28
2023-03-18T04:26:38.227Z,100991.13
2023-03-18T04:29:07.438Z,100986.41
2023-03-18T04:31:34.428Z,100982.75
2023-03-18T04:34:02.333Z,100986.41
2023-03-18T04:36:29.465Z,100993.47
2023-03-18T04:38:57.146Z,100991.16
2023-03-18T04:41:25.406Z,100993.69
2023-03-18T04:43:55.101Z,100988.34
2023-03-18T04:46:30.216Z,100984.94
2023-03-18T04:48:58.491Z,100984.34
2023-03-18T04:51:27.592Z,100977.41
2023-03-18T04:53:55.845Z,100982.06
2023-03-18T04:56:24.216Z,100984.84
2023-03-18T04:58:53.399Z,100985.94
2023-03-18T05:01:26.660Z,100990.31
2023-03-18T05:03:53.799Z,100992.53
2023-03-18T05:06:29.413Z,100998.03
2023-03-18T05:09:01.480Z,100993.16
2023-03-18T05:11:33.231Z,100990.59
2023-03-18T05:14:07.651Z,100991.56
2023-03-18T05:16:41.920Z,100994.50
2023-03-18T05:19:09.787Z,101012.03
2023-03-18T05:21:42.235Z,101002.53
2023-03-18T05:24:10.207Z,101006.94
2023-03-18T05:26:40.500Z,101011.31
2023-03-18T05:29:09.999Z,101006.94
2023-03-18T05:32:08.036Z,101002.53
2023-03-18T05:34:40.074Z,101010.59
2023-03-18T05:37:10.219Z,101008.66
2023-03-18T05:39:43.700Z,100995.25
2023-03-18T05:42:14.312Z,101003.50
2023-03-18T05:44:42.468Z,101006.44
2023-03-18T05:47:11.406Z,101011.06
2023-03-18T05:49:58.240Z,101012.78
2023-03-18T05:52:27.123Z,101020.81
2023-03-18T05:54:57.106Z,101021.78
2023-03-18T05:57:30.634Z,101028.25
2023-03-18T06:00:01.837Z,101030.78
2023-03-18T06:02:32.949Z,101048.22
2023-03-18T06:05:00.171Z,101047.22
2023-03-18T06:07:28.145Z,101053.31
2023-03-18T06:09:55.194Z,101050.75
2023-03-18T06:12:27.429Z,101036.41
2023-03-18T06:14:55.137Z,101037.50
2023-03-18T06:17:23.225Z,101042.00
2023-03-18T06:19:50.984Z,101047.38
2023-03-18T06:22:18.737Z,101047.38
2023-03-18T06:24:48.175Z,101041.00
2023-03-18T06:27:16.723Z,101033.22
2023-03-18T06:29:45.952Z,101041.28
2023-03-18T06:32:17.164Z,101037.25
2023-03-18T06:34:45.364Z,101039.94
2023-03-18T06:37:12.535Z,101046.03
2023-03-18T06:39:41.292Z,101045.78
2023-03-18T06:42:10.962Z,101054.66
2023-03-18T06:44:51.401Z,101061.47
2023-03-18T06:47:24.456Z,101067.59
2023-03-18T06:49:56.968Z,101063.69
2023-03-18T06:52:31.193Z,101059.78
2023-03-18T06:55:04.586Z,101058.66
2023-03-18T06:57:32.819Z,101063.78
2023-03-18T07:00:00.062Z,101069.75
2023-03-18T07:02:27.677Z,101080.22
2023-03-18T07:04:57.567Z,101081.66
2023-03-18T07:07:24.813Z,101077.03
2023-03-18T07:09:52.869Z,101077.03
2023-03-18T07:12:19.967Z,101087.78
2023-03-18T07:14:47.223Z,101085.34
2023-03-18T07:17:14.869Z,101085.94
2023-03-18T07:19:41.967Z,101086.81
2023-03-18T07:22:09.060Z,101087.88
2023-03-18T07:24:37.707Z,101082.41
2023-03-18T07:27:06.921Z,101089.47
2023-03-18T07:29:33.956Z,101091.31
2023-03-18T07:32:02.114Z,101096.56
2023-03-18T07:34:29.273Z,101093.97
2023-03-18T07:36:56.660Z,101103.84
2023-03-18T07:39:23.741Z,101109.34
2023-03-18T07:41:51.745Z,101110.31
2023-03-18T07:44:22.305Z,101103.34
2023-03-18T07:46:49.339Z,101110.56
2023-03-18T07:49:16.348Z,101117.75
2023-03-18T07:51:43.410Z,101118.25
2023-03-18T07:54:10.338Z,101125.28
2023-03-18T07:56:37.242Z,101119.69
2023-03-18T07:59:04.129Z,101123.84
2023-03-18T08:01:31.149Z,101133.97
2023-03-18T08:03:58.052Z,101135.16
2023-03-18T08:06:25.398Z,101140.16
2023-03-18T08:08:52.316Z,101137.97
2023-03-18T08:11:19.243Z,101139.41
2023-03-18T08:13:46.160Z,101131.63
2023-03-18T08:16:13.714Z,101133.56
2023-03-18T08:18:41.860Z,101136.47
2023-03-18T08:21:09.636Z,101132.31
2023-03-18T08:23:37.119Z,101135.94
2023-03-18T08:26:05.067Z,101139.94
2023-03-18T08:28:36.914Z,101145.69
2023-03-18T08:31:05.639Z,101144.59
2023-03-18T08:33:32.725Z,101146.34
2023-03-18T08:36:00.336Z,101154.31
2023-03-18T08:38:27.457Z,101151.03
2023-03-18T08:40:56.872Z,101156.69
2023-03-18T08:43:24.141Z,101153.91
2023-03-18T08:45:54.621Z,101146.41
2023-03-18T08:48:22.854Z,101148.00
2023-03-18T08:50:50.164Z,101144.88
2023-03-18T08:53:17.138Z,101149.13
2023-03-18T08:55:44.721Z,101143.72
2023-03-18T08:58:11.797Z,101137.53
2023-03-18T09:00:40.832Z,101135.63
2023-03-18T09:03:08.999Z,101138.69
2023-03-18T09:05:36.119Z,101147.06
2023-03-18T09:08:03.988Z,101153.53
2023-03-18T09:10:30.990Z,101163.09
2023-03-18T09:12:58.003Z,101159.69
2023-03-18T09:15:25.116Z,101151.84
2023-03-18T09:18:09.802Z,101149.09
2023-03-18T09:20:37.901Z,101152.53
2023-03-18T09:23:04.793Z,101148.78
2023-03-18T09:25:32.852Z,101151.06
2023-03-18T09:28:01.085Z,101152.06
2023-03-18T09:30:28.918Z,101154.06
2023-03-18T09:32:56.786Z,101159.56
2023-03-18T09:35:24.350Z,101165.13
2023-03-18T09:37:52.235Z,101171.44
2023-03-18T09:40:29.577Z,101172.94
2023-03-18T09:43:21.227Z,101179.72
2023-03-18T09:46:05.173Z,101169.75
2023-03-18T09:49:04.545Z,101164.97
2023-03-18T09:51:53.640Z,101161.53
2023-03-18T09:54:33.325Z,101161.25
2023-03-18T09:57:01.695Z,101160.72
2023-03-18T09:59:41.861Z,101165.47
2023-03-18T10:02:22.200Z,101165.16
2023-03-18T10:05:00.934Z,101174.44
2023-03-18T10:07:33.122Z,101169.81
2023-03-18T10:10:09.637Z,101167.22
2023-03-18T10:12:46.473Z,101163.81
2023-03-18T10:15:26.885Z,101165.03
2023-03-18T10:18:06.476Z,101170.34
2023-03-18T10:21:16.165Z,101160.72
2023-03-18T10:24:08.696Z,101162.09
2023-03-18T10:26:42.483Z,101168.63
2023-03-18T10:29:34.287Z,101163.16
2023-03-18T10:32:07.235Z,101167.03
2023-03-18T10:35:09.606Z,101159.66
2023-03-18T10:37:51.782Z,101165.91
2023-03-18T10:40:20.352Z,101163.47
2023-03-18T10:42:50.933Z,101167.13
2023-03-18T10:45:20.521Z,101152.59
2023-03-18T10:47:56.607Z,101158.41
2023-03-18T10:50:37.546Z,101170.22
2023-03-18T10:53:19.895Z,101166.28
2023-03-18T10:56:02.055Z,101170.50
2023-03-18T10:58:32.360Z,101166.88
2023-03-18T11:00:59.621Z,101166.28
2023-03-18T11:03:37.231Z,101162.34
2023-03-18T11:06:07.353Z,101167.59
2023-03-18T11:08:40.224Z,101161.34
2023-03-18T11:11:22.613Z,101159.66
2023-03-18T11:13:56.007Z,101149.72
2023-03-18T11:16:35.954Z,101156.13
2023-03-18T11:19:09.369Z,101159.09
2023-03-18T11:21:37.742Z,101164.50
2023-03-18T11:24:10.353Z,101169.44
2023-03-18T11:26:47.168Z,101164.78
2023-03-18T11:29:19.755Z,101167.88
2023-03-18T11:31:53.260Z,101165.84
2023-03-18T11:34:21.516Z,101171.22
2023-03-18T11:37:01.368Z,101167.88
2023-03-18T11:39:31.981Z,101174.06
2023-03-18T11:42:00.760Z,101178.59
2023-03-18T11:44:32.411Z,101174.38
2023-03-18T11:47:19.818Z,101167.31
2023-03-18T11:49:46.736Z,101167.31
2023-03-18T11:52:27.962Z,101169.31
2023-03-18T11:55:01.706Z,101161.91
2023-03-18T11:57:34.487Z,101157.66
2023-03-18T12:00:22.813Z,101155.06
2023-03-18T12:02:58.349Z,101148.28
2023-03-18T12:05:52.356Z,101144.06
2023-03-18T12:08:25.205Z,101144.03
2023-03-18T12:11:06.711Z,101140.09
2023-03-18T12:13:52.900Z,101136.28
2023-03-18T12:16:49.023Z,101135.94
2023-03-18T12:19:49.398Z,101127.97
2023-03-18T12:23:03.462Z,101122.25
2023-03-18T12:25:59.059Z,101101.78
2023-03-18T12:29:11.554Z,101107.88
2023-03-18T12:31:45.529Z,101098.38
2023-03-18T12:34:50.429Z,101102.91
2023-03-18T12:37:33.190Z,101098.72
2023-03-18T12:40:30.800Z,101089.78
2023-03-18T12:43:39.811Z,101082.78
2023-03-18T12:46:33.165Z,101079.47
2023-03-18T12:49:08.813Z,101074.59
2023-03-18T12:51:45.997Z,101060.75
2023-03-18T12:54:24.719Z,101057.94
2023-03-18T12:56:58.624Z,101063.53
2023-03-18T12:59:53.357Z,101054.59
2023-03-18T13:02:27.867Z,101056.28
2023-03-18T13:04:58.069Z,101055.06
2023-03-18T13:07:50.827Z,101057.38
2023-03-18T13:10:20.848Z,101045.50
2023-03-18T13:12:53.099Z,101043.53
2023-03-18T13:15:53.806Z,101025.75
2023-03-18T13:18:22.633Z,101023.06
2023-03-18T13:20:52.903Z,101023.38
2023-03-18T13:23:39.775Z,101026.59
2023-03-18T13:26:29.537Z,101022.88
2023-03-18T13:28:56.974Z,101021.66
2023-03-18T13:31:38.603Z,101020.56
2023-03-18T13:34:18.021Z,101028.47
2023-03-18T13:36:59.740Z,101025.06
2023-03-18T13:39:48.967Z,101022.75
2023-03-18T13:42:30.140Z,101006.53
2023-03-18T13:45:07.087Z,101007.81
2023-03-18T13:47:40.804Z,101006.44
2023-03-18T13:50:43.437Z,101010.28
2023-03-18T13:53:27.903Z,101018.84
2023-03-18T13:55:57.922Z,101008.22
2023-03-18T13:58:37.059Z,101010.28
2023-03-18T14:01:25.478Z,101015.03
2023-03-18T14:04:04.070Z,101016.25
2023-03-18T14:06:37.356Z,101016.19
2023-03-18T14:09:27.315Z,101024.78
2023-03-18T14:12:30.949Z,101022.28
2023-03-18T14:15:05.938Z,101019.97
2023-03-18T14:17:45.855Z,101024.66
2023-03-18T14:20:27.722Z,101026.94
2023-03-18T14:23:34.100Z,101017.31
2023-03-18T14:26:19.857Z,101012.53
2023-03-18T14:29:10.517Z,100998.59
2023-03-18T14:31:40.673Z,101001.16
2023-03-18T14:34:14.946Z,100994.44
2023-03-18T14:36:54.199Z,100997.72
2023-03-18T14:39:36.232Z,100998.53
2023-03-18T14:42:10.577Z,100995.16
2023-03-18T14:44:52.803Z,100993.66
2023-03-18T14:47:39.134Z,101000.91
2023-03-18T14:50:17.288Z,100996.69
2023-03-18T14:52:51.000Z,100989.84
2023-03-18T14:55:37.665Z,100993.47
2023-03-18T14:58:05.036Z,100994.63
2023-03-18T15:00:37.110Z,100998.72
2023-03-18T15:03:08.520Z,100997.22
2023-03-18T15:05:41.823Z,100990.75
2023-03-18T15:08:19.498Z,100989.25
2023-03-18T15:10:50.115Z,100993.25
2023-03-18T15:13:19.329Z,100985.75
2023-03-18T15:15:47.147Z,100992.94
2023-03-18T15:18:29.520Z,100994.94
2023-03-18T15:20:56.358Z,100985.88
2023-03-18T15:23:32.193Z,100992.75
2023-03-18T15:25:59.374Z,100986.03
2023-03-18T15:28:29.348Z,100982.66
2023-03-18T15:30:59.863Z,100987.72
2023-03-18T15:33:34.877Z,100974.97
2023-03-18T15:36:07.842Z,100981.56
2023-03-18T15:38:35.089Z,100982.47
2023-03-18T15:41:06.763Z,100983.44
2023-03-18T15:43:38.760Z,100968.19
2023-03-18T15:46:36.229Z,100971.81
2023-03-18T15:49:05.633Z,100976.56
2023-03-18T15:51:47.982Z,100980.94
2023-03-18T15:54:39.085Z,100977.53
2023-03-18T15:57:21.138Z,100974.38
2023-03-18T15:59:48.220Z,100971.56
2023-03-18T16:02:18.632Z,100967.53
2023-03-18T16:04:46.723Z,100964.00
2023-03-18T16:07:18.365Z,100960.75
2023-03-18T16:09:45.867Z,100963.00
2023-03-18T16:12:25.097Z,100958.59
2023-03-18T16:14:53.476Z,100973.38
2023-03-18T16:17:22.252Z,100974.69
2023-03-18T16:19:54.234Z,100981.06
2023-03-18T16:22:22.181Z,100988.72
2023-03-18T16:24:49.168Z,100980.34
2023-03-18T16:27:22.033Z,100986.00
2023-03-18T16:29:49.869Z,100977.66
2023-03-18T16:32:17.595Z,100977.53
2023-03-18T16:34:46.705Z,100981.38
2023-03-18T16:37:22.321Z,100985.31
2023-03-18T16:39:49.393Z,100986.16
2023-03-18T16:42:16.365Z,100981.53
2023-03-18T16:44:43.844Z,100982.50
2023-03-18T16:47:21.857Z,100990.16
2023-03-18T16:49:49.391Z,101000.94
2023-03-18T16:52:16.777Z,101000.66
2023-03-18T16:54:44.466Z,101007.72
2023-03-18T16:57:18.901Z,101011.13
2023-03-18T16:59:53.464Z,101015.28
2023-03-18T17:02:33.176Z,101019.81
2023-03-18T17:05:00.895Z,101028.22
2023-03-18T17:07:29.553Z,101032.34
2023-03-18T17:09:56.798Z,101040.16
2023-03-18T17:12:25.110Z,101046.44
2023-03-18T17:14:57.801Z,101047.84
2023-03-18T17:17:33.086Z,101049.59
2023-03-18T17:20:00.310Z,101056.56
2023-03-18T17:22:30.628Z,101059.53
2023-03-18T17:24:57.686Z,101060.97
2023-03-18T17:27:39.820Z,101068.63
2023-03-18T17:30:33.836Z,101075.16
2023-03-18T17:33:01.424Z,101083.69
2023-03-18T17:35:28.778Z,101081.97
2023-03-18T17:37:56.651Z,101090.50
2023-03-18T17:40:26.045Z,101087.94
2023-03-18T17:42:54.059Z,101098.44
2023-03-18T17:45:25.085Z,101091.78
2023-03-18T17:47:52.659Z,101104.81
2023-03-18T17:50:20.774Z,101106.94
2023-03-18T17:52:51.507Z,101106.38
2023-03-18T17:55:22.733Z,101107.38
2023-03-18T17:57:50.841Z,101105.22
2023-03-18T18:00:24.888Z,101112.59
2023-03-18T18:02:54.530Z,101111.16
2023-03-18T18:05:23.181Z,101107.88
2023-03-18T18:07:51.573Z,101122.47
2023-03-18T18:10:20.614Z,101120.16
2023-03-18T18:12:49.799Z,101129.50
2023-03-18T18:15:26.774Z,101134.03
2023-03-18T18:17:54.786Z,101137.88
2023-03-18T18:20:22.372Z,101140.69
2023-03-18T18:22:55.664Z,101138.00
2023-03-18T18:25:27.190Z,101141.66
2023-03-18T18:27:54.654Z,101143.66
2023-03-18T18:30:23.862Z,101134.88
2023-03-18T18:32:51.571Z,101144.94
2023-03-18T18:35:21.290Z,101147.47
2023-03-18T18:37:49.961Z,101143.22
2023-03-18T18:40:18.168Z,101139.69
2023-03-18T18:42:45.328Z,101147.88
2023-03-18T18:45:19.208Z,101149.72
2023-03-18T18:47:46.563Z,101148.28
2023-03-18T18:50:17.955Z,101152.25
2023-03-18T18:52:45.585Z,101146.63
2023-03-18T18:55:12.630Z,101143.06
2023-03-18T18:57:42.950Z,101147.84
2023-03-18T19:00:30.870Z,101145.31
2023-03-18T19:02:58.185Z,101152.66
2023-03-18T19:05:25.288Z,101151.81
2023-03-18T19:07:52.873Z,101167.09
2023-03-18T19:10:19.913Z,101165.66
2023-03-18T19:12:47.312Z,101168.34
2023-03-18T19:15:15.670Z,101170.91
2023-03-18T19:17:43.598Z,101176.41
2023-03-18T19:20:39.843Z,101174.69
2023-03-18T19:23:15.009Z,101181.34
2023-03-18T19:25:42.119Z,101182.03
2023-03-18T19:28:15.832Z,101190.75
2023-03-18T19:30:42.890Z,101184.63
2023-03-18T19:33:15.603Z,101181.53
2023-03-18T19:35:43.710Z,101186.88
2023-03-18T19:38:21.608Z,101188.38
2023-03-18T19:40:49.950Z,101193.47
2023-03-18T19:43:21.597Z,101199.13
2023-03-18T19:45:50.623Z,101200.09
2023-03-18T19:48:23.681Z,101204.22
2023-03-18T19:50:51.619Z,101210.72
2023-03-18T19:53:19.595Z,101200.16
2023-03-18T19:55:48.709Z,101213.94
2023-03-18T19:58:27.054Z,101226.13
2023-03-18T20:00:55.374Z,101230.41
2023-03-18T20:03:24.216Z,101240.81
2023-03-18T20:05:52.726Z,101239.69
2023-03-18T20:08:19.615Z,101243.22
2023-03-18T20:10:46.820Z,101239.56
2023-03-18T20:13:16.710Z,101248.88
2023-03-18T20:15:44.249Z,101256.66
2023-03-18T20:18:18.156Z,101244.47
2023-03-18T20:20:48.914Z,101251.81
2023-03-18T20:23:26.846Z,101246.91
2023-03-18T20:25:54.164Z,101253.00
2023-03-18T20:28:24.354Z,101260.31
2023-03-18T20:30:53.444Z,101263.16
2023-03-18T20:33:22.308Z,101270.25
2023-03-18T20:35:52.571Z,101269.91
2023-03-18T20:38:30.338Z,101283.13
2023-03-18T20:40:57.670Z,101284.59
2023-03-18T20:43:27.961Z,101287.78
2023-03-18T20:45:57.358Z,101286.34
2023-03-18T20:48:24.982Z,101282.69
2023-03-18T20:50:52.909Z,101297.63
2023-03-18T20:53:24.048Z,101290.53
2023-03-18T20:55:52.222Z,101290.56
2023-03-18T20:58:22.953Z,101286.91
2023-03-18T21:00:51.592Z,101285.69
2023-03-18T21:03:27.171Z,101299.34
2023-03-18T21:05:57.957Z,101305.22
2023-03-18T21:08:27.262Z,101301.19
2023-03-18T21:10:58.089Z,101306.56
2023-03-18T21:13:30.840Z,101307.44
2023-03-18T21:15:59.691Z,101312.78
2023-03-18T21:18:26.949Z,101308.59
2023-03-18T21:20:55.547Z,101318.38
2023-03-18T21:23:25.643Z,101316.41
2023-03-18T21:25:53.754Z,101326.78
2023-03-18T21:28:23.939Z,101322.75
2023-03-18T21:30:53.709Z,101322.97
2023-03-18T21:33:30.116Z,101327.97
2023-03-18T21:35:58.101Z,101333.50
2023-03-18T21:38:30.873Z,101326.03
2023-03-18T21:40:59.487Z,101330.53
2023-03-18T21:43:33.226Z,101335.66
2023-03-18T21:46:05.696Z,101338.84
2023-03-18T21:48:32.851Z,101337.38
2023-03-18T21:51:00.401Z,101339.53
2023-03-18T21:53:29.186Z,101341.63
2023-03-18T21:55:56.286Z,101342.44
2023-03-18T21:58:25.842Z,101349.31
2023-03-18T22:00:58.007Z,101343.94
2023-03-18T22:03:28.288Z,101343.34
2023-03-18T22:05:56.525Z,101344.91
2023-03-18T22:08:24.317Z,101342.72
2023-03-18T22:10:52.276Z,101341.53
2023-03-18T22:13:23.820Z,101346.16
2023-03-18T22:15:53.057Z,101342.28
2023-03-18T22:18:21.302Z,101348.72
2023-03-18T22:20:51.764Z,101340.78
2023-03-18T22:23:27.763Z,101345.47
2023-03-18T22:25:57.507Z,101349.09
2023-03-18T22:28:26.080Z,101343.28
2023-03-18T22:30:55.929Z,101349.16
2023-03-18T22:33:26.977Z,101351.81
2023-03-18T22:35:54.059Z,101348.75
2023-03-18T22:38:22.455Z,101346.44
2023-03-18T22:40:55.504Z,101348.38
2023-03-18T22:43:37.296Z,101347.88
2023-03-18T22:46:06.955Z,101337.63
2023-03-18T22:48:36.500Z,101338.34
2023-03-18T22:51:04.993Z,101344.72
2023-03-18T22:53:41.285Z,101332.38
2023-03-18T22:56:14.308Z,101335.94
2023-03-18T22:58:41.501Z,101334.47
2023-03-18T23:01:14.389Z,101340.97
2023-03-18T23:03:43.999Z,101339.34
2023-03-18T23:06:19.752Z,101342.53
2023-03-18T23:08:47.733Z,101339.63
2023-03-18T23:11:16.115Z,101345.22
2023-03-18T23:13:45.564Z,101340.81
2023-03-18T23:16:18.303Z,101344.25
2023-03-18T23:18:45.965Z,101341.06
2023-03-18T23:21:21.897Z,101348.13
2023-03-18T23:23:49.376Z,101344.84
2023-03-18T23:26:17.227Z,101340.22
2023-03-18T23:28:45.442Z,101347.66
2023-03-18T23:31:14.588Z,101344.84
2023-03-18T23:33:42.089Z,101349.25
2023-03-18T23:36:20.695Z,101345.22
2023-03-18T23:38:47.929Z,101346.44
2023-03-18T23:41:15.187Z,101350.34
2023-03-18T23:43:42.145Z,101352.91
2023-03-18T23:46:09.374Z,101357.78
2023-03-18T23:48:37.144Z,101354.03
2023-03-18T23:51:04.126Z,101355.00
2023-03-18T23:53:31.054Z,101355.09
2023-03-18T23:55:58.003Z,101350.94
2023-03-18T23:58:24.935Z,101352.78
